Time,TemperatureF,DewpointF,PressureIn,WindDirection,WindDirectionDegrees,WindSpeedMPH,WindSpeedGustMPH,Humidity,HourlyPrecipIn,Conditions,Clouds,dailyrainin,SoftwareType,DateUTC
2013-07-25 00:02:00,72.0,57.7,30.09,NW,315,0.0,4.0,61,0.00,,,0.00,meteohub,2013-07-25 04:02:00,
2013-07-25 00:12:00,72.0,57.7,30.09,NE,45,0.0,6.0,61,0.00,,,0.00,meteohub,2013-07-25 04:12:00,
2013-07-25 00:22:00,72.0,56.8,30.09,NE,45,0.0,5.0,59,0.00,,,0.00,meteohub,2013-07-25 04:22:00,
2013-07-25 00:32:00,71.1,56.5,30.09,East,90,0.0,5.0,60,0.00,,,0.00,meteohub,2013-07-25 04:32:00,
2013-07-25 00:42:00,71.1,55.9,30.09,West,270,0.0,6.0,59,0.00,,,0.00,meteohub,2013-07-25 04:42:00,
2013-07-25 00:52:00,71.1,55.9,30.09,NW,315,4.0,4.0,59,0.00,,,0.00,meteohub,2013-07-25 04:52:00,
2013-07-25 01:02:00,71.1,55.9,30.09,NE,45,2.0,7.0,59,0.00,,,0.00,meteohub,2013-07-25 05:02:00,
2013-07-25 01:12:00,70.0,55.4,30.09,North,0,1.0,4.0,60,0.00,,,0.00,meteohub,2013-07-25 05:12:00,
2013-07-25 01:22:00,70.0,55.9,30.09,SW,225,1.0,4.0,61,0.00,,,0.00,meteohub,2013-07-25 05:22:00,
2013-07-25 01:32:00,70.0,55.9,30.09,NE,45,2.0,5.0,61,0.00,,,0.00,meteohub,2013-07-25 05:32:00,
2013-07-25 01:42:00,70.0,55.9,30.09,SW,225,1.0,5.0,61,0.00,,,0.00,meteohub,2013-07-25 05:42:00,
2013-07-25 01:52:00,70.0,56.3,30.09,NE,45,2.0,4.0,62,0.00,,,0.00,meteohub,2013-07-25 05:52:00,
2013-07-25 02:02:00,69.1,55.6,30.08,NW,315,2.0,4.0,62,0.00,,,0.00,meteohub,2013-07-25 06:02:00,
2013-07-25 02:12:00,69.1,55.9,30.08,NE,45,2.0,10.0,63,0.00,,,0.00,meteohub,2013-07-25 06:12:00,
2013-07-25 02:22:00,68.0,55.4,30.08,SE,135,2.0,7.0,64,0.00,,,0.00,meteohub,2013-07-25 06:22:00,
2013-07-25 02:32:00,68.0,55.4,30.08,NW,315,2.0,5.0,64,0.00,,,0.00,meteohub,2013-07-25 06:32:00,
2013-07-25 02:42:00,68.0,55.4,30.08,SE,135,2.0,6.0,64,0.00,,,0.00,meteohub,2013-07-25 06:42:00,
2013-07-25 02:52:00,68.0,55.4,30.08,ESE,112,4.0,6.0,64,0.00,,,0.00,meteohub,2013-07-25 06:52:00,
2013-07-25 03:02:00,68.0,54.9,30.08,NNW,337,2.0,6.0,63,0.00,,,0.00,meteohub,2013-07-25 07:02:00,
2013-07-25 03:12:00,66.9,54.0,30.08,NW,315,1.0,5.0,63,0.00,,,0.00,meteohub,2013-07-25 07:12:00,
2013-07-25 03:22:00,66.9,53.4,30.08,NW,315,2.0,6.0,62,0.00,,,0.00,meteohub,2013-07-25 07:22:00,
2013-07-25 03:32:00,66.9,53.4,30.08,SE,135,1.0,6.0,62,0.00,,,0.00,meteohub,2013-07-25 07:32:00,
2013-07-25 03:42:00,66.9,53.1,30.09,NW,315,1.0,6.0,61,0.00,,,0.00,meteohub,2013-07-25 07:42:00,
2013-07-25 03:52:00,66.0,52.2,30.08,NW,315,3.0,6.0,61,0.00,,,0.00,meteohub,2013-07-25 07:52:00,
2013-07-25 04:02:00,66.0,52.2,30.08,NE,45,2.0,5.0,61,0.00,,,0.00,meteohub,2013-07-25 08:02:00,
2013-07-25 04:12:00,66.0,52.2,30.09,NE,45,0.0,5.0,61,0.00,,,0.00,meteohub,2013-07-25 08:12:00,
2013-07-25 04:22:00,66.0,52.2,30.09,NE,45,1.0,6.0,61,0.00,,,0.00,meteohub,2013-07-25 08:22:00,
2013-07-25 04:32:00,66.0,52.2,30.09,NE,45,1.0,6.0,61,0.00,,,0.00,meteohub,2013-07-25 08:32:00,
2013-07-25 04:42:00,66.0,52.7,30.09,NW,315,1.0,2.0,62,0.00,,,0.00,meteohub,2013-07-25 08:42:00,
2013-07-25 04:52:00,64.9,51.1,30.09,North,0,1.0,7.0,61,0.00,,,0.00,meteohub,2013-07-25 08:52:00,
2013-07-25 05:02:00,64.9,50.7,30.09,NE,45,0.0,7.0,60,0.00,,,0.00,meteohub,2013-07-25 09:02:00,
2013-07-25 05:12:00,64.9,51.1,30.09,SE,135,0.0,6.0,61,0.00,,,0.00,meteohub,2013-07-25 09:12:00,
2013-07-25 05:22:00,64.9,52.0,30.09,NE,45,2.0,6.0,63,0.00,,,0.00,meteohub,2013-07-25 09:22:00,
2013-07-25 05:32:00,64.0,51.3,30.10,ESE,112,2.0,5.0,63,0.00,,,0.00,meteohub,2013-07-25 09:32:00,
2013-07-25 05:42:00,64.0,51.6,30.09,NE,45,2.0,6.0,64,0.00,,,0.00,meteohub,2013-07-25 09:42:00,
2013-07-25 05:52:00,64.0,52.5,30.10,North,0,2.0,5.0,66,0.00,,,0.00,meteohub,2013-07-25 09:52:00,
2013-07-25 06:02:00,64.0,52.9,30.09,NW,315,1.0,6.0,67,0.00,,,0.00,meteohub,2013-07-25 10:02:00,
2013-07-25 06:12:00,63.0,51.8,30.09,NE,45,1.0,7.0,67,0.00,,,0.00,meteohub,2013-07-25 10:12:00,
2013-07-25 06:22:00,63.0,52.7,30.09,NE,45,0.0,4.0,69,0.00,,,0.00,meteohub,2013-07-25 10:22:00,
2013-07-25 06:32:00,63.0,52.7,30.09,NW,315,2.0,9.0,69,0.00,,,0.00,meteohub,2013-07-25 10:32:00,
2013-07-25 06:42:00,63.0,53.1,30.10,North,0,1.0,9.0,70,0.00,,,0.00,meteohub,2013-07-25 10:42:00,
2013-07-25 06:52:00,63.0,53.4,30.10,NNW,337,2.0,7.0,71,0.00,,,0.00,meteohub,2013-07-25 10:52:00,
2013-07-25 07:02:00,62.1,52.9,30.10,North,0,2.0,7.0,72,0.00,,,0.00,meteohub,2013-07-25 11:02:00,
2013-07-25 07:12:00,62.1,53.2,30.11,NW,315,0.0,7.0,73,0.00,,,0.00,meteohub,2013-07-25 11:12:00,
2013-07-25 07:22:00,62.1,53.6,30.11,North,0,0.0,5.0,74,0.00,,,0.00,meteohub,2013-07-25 11:22:00,
2013-07-25 07:32:00,62.1,53.6,30.11,North,0,0.0,6.0,74,0.00,,,0.00,meteohub,2013-07-25 11:32:00,
2013-07-25 07:42:00,62.1,53.6,30.11,NNW,337,0.0,6.0,74,0.00,,,0.00,meteohub,2013-07-25 11:42:00,
2013-07-25 07:52:00,62.1,54.0,30.11,NNW,337,1.0,6.0,75,0.00,,,0.00,meteohub,2013-07-25 11:52:00,
2013-07-25 08:02:00,61.0,53.1,30.11,NW,315,3.0,7.0,75,0.00,,,0.00,meteohub,2013-07-25 12:02:00,
2013-07-25 08:12:00,61.0,53.1,30.11,NW,315,0.0,6.0,75,0.00,,,0.00,meteohub,2013-07-25 12:12:00,
2013-07-25 08:22:00,61.0,53.1,30.11,NW,315,5.0,9.0,75,0.00,,,0.00,meteohub,2013-07-25 12:22:00,
2013-07-25 08:32:00,61.0,53.4,30.11,North,0,1.0,9.0,76,0.00,,,0.00,meteohub,2013-07-25 12:32:00,
2013-07-25 08:42:00,61.0,53.4,30.11,NW,315,2.0,9.0,76,0.00,,,0.00,meteohub,2013-07-25 12:42:00,
2013-07-25 08:52:00,62.1,54.0,30.11,North,0,3.0,7.0,75,0.00,,,0.00,meteohub,2013-07-25 12:52:00,
2013-07-25 09:02:00,62.1,54.0,30.12,NW,315,1.0,8.0,75,0.00,,,0.00,meteohub,2013-07-25 13:02:00,
2013-07-25 09:12:00,63.0,54.5,30.13,NW,315,5.0,8.0,74,0.00,,,0.00,meteohub,2013-07-25 13:12:00,
2013-07-25 09:22:00,63.0,54.1,30.13,East,90,2.0,6.0,73,0.00,,,0.00,meteohub,2013-07-25 13:22:00,
2013-07-25 09:32:00,63.0,54.1,30.13,North,0,1.0,7.0,73,0.00,,,0.00,meteohub,2013-07-25 13:32:00,
2013-07-25 09:42:00,63.0,54.5,30.13,North,0,2.0,7.0,74,0.00,,,0.00,meteohub,2013-07-25 13:42:00,
2013-07-25 09:52:00,64.0,54.9,30.13,North,0,2.0,5.0,72,0.00,,,0.00,meteohub,2013-07-25 13:52:00,
2013-07-25 10:02:00,66.0,55.2,30.14,East,90,2.0,5.0,68,0.00,,,0.00,meteohub,2013-07-25 14:02:00,
2013-07-25 10:12:00,66.9,54.9,30.15,NW,315,2.0,5.0,65,0.00,,,0.00,meteohub,2013-07-25 14:12:00,
2013-07-25 10:22:00,66.9,54.9,30.16,NE,45,0.0,9.0,65,0.00,,,0.00,meteohub,2013-07-25 14:22:00,
2013-07-25 10:32:00,68.0,54.9,30.17,NW,315,5.0,5.0,63,0.00,,,0.00,meteohub,2013-07-25 14:32:00,
2013-07-25 10:42:00,69.1,55.0,30.18,NW,315,1.0,6.0,61,0.00,,,0.00,meteohub,2013-07-25 14:42:00,
2013-07-25 10:52:00,70.0,55.4,30.18,North,0,0.0,5.0,60,0.00,,,0.00,meteohub,2013-07-25 14:52:00,
2013-07-25 11:02:00,70.0,55.0,30.19,NW,315,3.0,9.0,59,0.00,,,0.00,meteohub,2013-07-25 15:02:00,
2013-07-25 11:12:00,70.0,55.0,30.18,NW,315,1.0,9.0,59,0.00,,,0.00,meteohub,2013-07-25 15:12:00,
2013-07-25 11:22:00,70.0,55.9,30.18,NW,315,2.0,5.0,61,0.00,,,0.00,meteohub,2013-07-25 15:22:00,
2013-07-25 11:32:00,70.0,55.4,30.19,West,270,2.0,7.0,60,0.00,,,0.00,meteohub,2013-07-25 15:32:00,
2013-07-25 11:42:00,71.1,55.6,30.19,NW,315,7.0,8.0,58,0.00,,,0.00,meteohub,2013-07-25 15:42:00,
2013-07-25 11:52:00,72.0,56.3,30.18,NE,45,2.0,8.0,58,0.00,,,0.00,meteohub,2013-07-25 15:52:00,
2013-07-25 12:02:00,73.0,55.9,30.19,NE,45,1.0,4.0,55,0.00,,,0.00,meteohub,2013-07-25 16:02:00,
2013-07-25 12:12:00,73.0,56.5,30.19,NW,315,2.0,7.0,56,0.00,,,0.00,meteohub,2013-07-25 16:12:00,
2013-07-25 12:22:00,73.0,55.9,30.19,East,90,2.0,6.0,55,0.00,,,0.00,meteohub,2013-07-25 16:22:00,
2013-07-25 12:32:00,73.9,56.3,30.19,NW,315,2.0,5.0,54,0.00,,,0.00,meteohub,2013-07-25 16:32:00,
2013-07-25 12:42:00,73.9,56.3,30.19,NW,315,2.0,12.0,54,0.00,,,0.00,meteohub,2013-07-25 16:42:00,
2013-07-25 12:52:00,75.0,56.7,30.19,NE,45,1.0,6.0,53,0.00,,,0.00,meteohub,2013-07-25 16:52:00,
2013-07-25 13:02:00,75.0,56.1,30.19,NW,315,2.0,7.0,52,0.00,,,0.00,meteohub,2013-07-25 17:02:00,
2013-07-25 13:12:00,75.0,56.7,30.19,NW,315,2.0,7.0,53,0.00,,,0.00,meteohub,2013-07-25 17:12:00,
2013-07-25 13:22:00,75.0,54.0,30.19,NNW,337,5.0,6.0,48,0.00,,,0.00,meteohub,2013-07-25 17:22:00,
2013-07-25 13:32:00,75.0,54.5,30.19,WNW,292,2.0,9.0,49,0.00,,,0.00,meteohub,2013-07-25 17:32:00,
2013-07-25 13:42:00,75.9,55.4,30.19,West,270,3.0,6.0,49,0.00,,,0.00,meteohub,2013-07-25 17:42:00,
2013-07-25 13:52:00,77.0,56.3,30.20,NW,315,3.0,7.0,49,0.00,,,0.00,meteohub,2013-07-25 17:52:00,
2013-07-25 14:02:00,75.9,54.9,30.19,West,270,2.0,8.0,48,0.00,,,0.00,meteohub,2013-07-25 18:02:00,
2013-07-25 14:12:00,77.0,57.0,30.19,East,90,1.0,8.0,50,0.00,,,0.00,meteohub,2013-07-25 18:12:00,
2013-07-25 14:22:00,78.1,56.3,30.19,SW,225,0.0,6.0,47,0.00,,,0.00,meteohub,2013-07-25 18:22:00,
2013-07-25 14:32:00,78.1,55.6,30.19,SW,225,0.0,9.0,46,0.00,,,0.00,meteohub,2013-07-25 18:32:00,
2013-07-25 14:42:00,78.1,56.3,30.19,WSW,247,1.0,6.0,47,0.00,,,0.00,meteohub,2013-07-25 18:42:00,
2013-07-25 14:52:00,78.1,56.3,30.19,East,90,2.0,7.0,47,0.00,,,0.00,meteohub,2013-07-25 18:52:00,
2013-07-25 15:02:00,79.0,57.0,30.20,NW,315,4.0,7.0,47,0.00,,,0.00,meteohub,2013-07-25 19:02:00,
2013-07-25 15:12:00,78.1,56.8,30.19,NW,315,1.0,7.0,48,0.00,,,0.00,meteohub,2013-07-25 19:12:00,
2013-07-25 15:22:00,78.1,55.6,30.19,North,0,2.0,7.0,46,0.00,,,0.00,meteohub,2013-07-25 19:22:00,
2013-07-25 15:32:00,79.0,55.8,30.19,East,90,2.0,4.0,45,0.00,,,0.00,meteohub,2013-07-25 19:32:00,
2013-07-25 15:42:00,79.0,55.8,30.19,NW,315,2.0,6.0,45,0.00,,,0.00,meteohub,2013-07-25 19:42:00,
2013-07-25 15:52:00,79.0,56.5,30.20,West,270,0.0,6.0,46,0.00,,,0.00,meteohub,2013-07-25 19:52:00,
2013-07-25 16:02:00,79.0,56.5,30.19,ESE,112,2.0,7.0,46,0.00,,,0.00,meteohub,2013-07-25 20:02:00,
2013-07-25 16:12:00,79.0,54.0,30.20,NW,315,2.0,7.0,42,0.00,,,0.00,meteohub,2013-07-25 20:12:00,
2013-07-25 16:22:00,80.1,54.9,30.19,NW,315,2.0,7.0,42,0.00,,,0.00,meteohub,2013-07-25 20:22:00,
2013-07-25 16:32:00,80.1,55.6,30.19,SSE,157,0.0,7.0,43,0.00,,,0.00,meteohub,2013-07-25 20:32:00,
2013-07-25 16:42:00,80.1,55.6,30.19,NW,315,4.0,6.0,43,0.00,,,0.00,meteohub,2013-07-25 20:42:00,
2013-07-25 16:52:00,80.1,56.1,30.19,NW,315,4.0,6.0,44,0.00,,,0.00,meteohub,2013-07-25 20:52:00,
2013-07-25 17:02:00,80.1,54.9,30.19,NE,45,1.0,6.0,42,0.00,,,0.00,meteohub,2013-07-25 21:02:00,
2013-07-25 17:12:00,81.0,55.0,30.19,NNW,337,3.0,5.0,41,0.00,,,0.00,meteohub,2013-07-25 21:12:00,
2013-07-25 17:22:00,80.1,54.9,30.19,SE,135,0.0,6.0,42,0.00,,,0.00,meteohub,2013-07-25 21:22:00,
2013-07-25 17:32:00,81.0,56.3,30.19,NW,315,2.0,6.0,43,0.00,,,0.00,meteohub,2013-07-25 21:32:00,
2013-07-25 17:42:00,80.1,54.9,30.19,NW,315,2.0,4.0,42,0.00,,,0.00,meteohub,2013-07-25 21:42:00,
2013-07-25 17:52:00,79.0,55.8,30.19,NW,315,2.0,7.0,45,0.00,,,0.00,meteohub,2013-07-25 21:52:00,
2013-07-25 18:02:00,80.1,56.8,30.19,North,0,1.0,7.0,45,0.00,,,0.00,meteohub,2013-07-25 22:02:00,
2013-07-25 18:12:00,80.1,56.8,30.19,NW,315,3.0,7.0,45,0.00,,,0.00,meteohub,2013-07-25 22:12:00,
2013-07-25 18:22:00,80.1,56.1,30.19,NNW,337,3.0,7.0,44,0.00,,,0.00,meteohub,2013-07-25 22:22:00,
2013-07-25 18:32:00,79.0,56.5,30.19,North,0,2.0,7.0,46,0.00,,,0.00,meteohub,2013-07-25 22:32:00,
2013-07-25 18:42:00,78.1,55.0,30.19,NW,315,2.0,7.0,45,0.00,,,0.00,meteohub,2013-07-25 22:42:00,
2013-07-25 18:52:00,78.1,57.4,30.19,North,0,2.0,7.0,49,0.00,,,0.00,meteohub,2013-07-25 22:52:00,
2013-07-25 19:02:00,78.1,56.8,30.20,NE,45,2.0,6.0,48,0.00,,,0.00,meteohub,2013-07-25 23:02:00,
2013-07-25 19:12:00,77.0,57.6,30.20,NW,315,1.0,7.0,51,0.00,,,0.00,meteohub,2013-07-25 23:12:00,
2013-07-25 19:22:00,75.9,57.0,30.20,NW,315,2.0,6.0,52,0.00,,,0.00,meteohub,2013-07-25 23:22:00,
2013-07-25 19:32:00,75.0,56.7,30.20,NNW,337,1.0,6.0,53,0.00,,,0.00,meteohub,2013-07-25 23:32:00,
2013-07-25 19:42:00,75.0,56.7,30.20,North,0,2.0,8.0,53,0.00,,,0.00,meteohub,2013-07-25 23:42:00,
2013-07-25 19:52:00,75.0,57.7,30.20,NW,315,2.0,6.0,55,0.00,,,0.00,meteohub,2013-07-25 23:52:00,
2013-07-25 20:02:00,73.9,56.8,30.20,NW,315,1.0,5.0,55,0.00,,,0.00,meteohub,2013-07-26 00:02:00,
2013-07-25 20:12:00,73.9,57.7,30.20,NW,315,2.0,6.0,57,0.00,,,0.00,meteohub,2013-07-26 00:12:00,
2013-07-25 20:22:00,73.0,57.4,30.19,NW,315,1.0,4.0,58,0.00,,,0.00,meteohub,2013-07-26 00:22:00,
2013-07-25 20:32:00,73.0,57.9,30.19,NW,315,0.0,3.0,59,0.00,,,0.00,meteohub,2013-07-26 00:32:00,
2013-07-25 20:42:00,73.0,59.7,30.19,East,90,0.0,2.0,63,0.00,,,0.00,meteohub,2013-07-26 00:42:00,
2013-07-25 20:52:00,72.0,61.2,30.19,East,90,1.0,3.0,69,0.00,,,0.00,meteohub,2013-07-26 00:52:00,
2013-07-25 21:02:00,72.0,62.1,30.19,East,90,0.0,4.0,71,0.00,,,0.00,meteohub,2013-07-26 01:02:00,
2013-07-25 21:12:00,71.1,61.2,30.19,East,90,0.0,2.0,71,0.00,,,0.00,meteohub,2013-07-26 01:12:00,
2013-07-25 21:22:00,71.1,61.9,30.19,East,90,0.0,2.0,73,0.00,,,0.00,meteohub,2013-07-26 01:22:00,
2013-07-25 21:32:00,71.1,62.4,30.19,East,90,0.0,2.0,74,0.00,,,0.00,meteohub,2013-07-26 01:32:00,
2013-07-25 21:42:00,71.1,62.4,30.20,East,90,0.0,2.0,74,0.00,,,0.00,meteohub,2013-07-26 01:42:00,
2013-07-25 21:52:00,70.0,61.7,30.20,East,90,0.0,2.0,75,0.00,,,0.00,meteohub,2013-07-26 01:52:00,
2013-07-25 22:02:00,70.0,62.1,30.20,East,90,0.0,0.0,76,0.00,,,0.00,meteohub,2013-07-26 02:02:00,
2013-07-25 22:12:00,69.1,61.5,30.20,East,90,0.0,0.0,77,0.00,,,0.00,meteohub,2013-07-26 02:12:00,
2013-07-25 22:22:00,69.1,61.9,30.20,SE,135,0.0,2.0,78,0.00,,,0.00,meteohub,2013-07-26 02:22:00,
2013-07-25 22:32:00,69.1,62.2,30.20,SE,135,0.0,2.0,79,0.00,,,0.00,meteohub,2013-07-26 02:32:00,
2013-07-25 22:42:00,69.1,62.6,30.19,North,0,0.0,2.0,80,0.00,,,0.00,meteohub,2013-07-26 02:42:00,
2013-07-25 22:52:00,68.0,61.9,30.19,North,0,0.0,2.0,81,0.00,,,0.00,meteohub,2013-07-26 02:52:00,
2013-07-25 23:02:00,68.0,62.6,30.19,North,0,1.0,2.0,83,0.00,,,0.00,meteohub,2013-07-26 03:02:00,
2013-07-25 23:12:00,66.9,61.9,30.19,North,0,0.0,2.0,84,0.00,,,0.00,meteohub,2013-07-26 03:12:00,
2013-07-25 23:22:00,66.9,62.2,30.18,North,0,0.0,2.0,85,0.00,,,0.00,meteohub,2013-07-26 03:22:00,
2013-07-25 23:32:00,66.9,62.6,30.19,North,0,0.0,2.0,86,0.00,,,0.00,meteohub,2013-07-26 03:32:00,
2013-07-25 23:42:00,66.9,62.6,30.19,North,0,0.0,2.0,86,0.00,,,0.00,meteohub,2013-07-26 03:42:00,
2013-07-25 23:52:00,66.0,62.1,30.19,North,0,2.0,2.0,87,0.00,,,0.00,meteohub,2013-07-26 03:52:00,